sensor_id;sensor_type;location;lat;lon;timestamp;P1;durP1;ratioP1;P2;durP2;ratioP2
1625;SDS011;806;48.770;9.156;2023-04-24T00:00:19;0.70;;;0.20;;
1625;SDS011;806;48.770;9.156;2023-04-24T00:02:48;0.45;;;0.20;;
1625;SDS011;806;48.770;9.156;2023-04-24T00:05:15;0.40;;;0.20;;
1625;SDS011;806;48.770;9.156;2023-04-24T00:07:43;0.50;;;0.20;;
1625;SDS011;806;48.770;9.156;2023-04-24T00:10:11;0.50;;;0.20;;
1625;SDS011;806;48.770;9.156;2023-04-24T00:12:38;0.30;;;0.20;;
1625;SDS011;806;48.770;9.156;2023-04-24T00:15:06;0.47;;;0.20;;
1625;SDS011;806;48.770;9.156;2023-04-24T00:17:34;0.50;;;0.20;;
1625;SDS011;806;48.770;9.156;2023-04-24T00:20:02;0.68;;;0.20;;
1625;SDS011;806;48.770;9.156;2023-04-24T00:22:31;0.40;;;0.20;;
1625;SDS011;806;48.770;9.156;2023-04-24T00:24:59;0.40;;;0.20;;
1625;SDS011;806;48.770;9.156;2023-04-24T00:27:26;0.47;;;0.20;;
1625;SDS011;806;48.770;9.156;2023-04-24T00:29:53;0.50;;;0.20;;
1625;SDS011;806;48.770;9.156;2023-04-24T00:32:20;0.40;;;0.20;;
1625;SDS011;806;48.770;9.156;2023-04-24T00:34:47;0.50;;;0.20;;
1625;SDS011;806;48.770;9.156;2023-04-24T00:37:15;0.52;;;0.20;;
1625;SDS011;806;48.770;9.156;2023-04-24T00:39:42;0.40;;;0.20;;
1625;SDS011;806;48.770;9.156;2023-04-24T00:42:09;0.40;;;0.17;;
1625;SDS011;806;48.770;9.156;2023-04-24T00:44:37;0.70;;;0.20;;
1625;SDS011;806;48.770;9.156;2023-04-24T00:47:04;0.68;;;0.50;;
1625;SDS011;806;48.770;9.156;2023-04-24T00:49:31;0.50;;;0.20;;
1625;SDS011;806;48.770;9.156;2023-04-24T00:51:58;0.50;;;0.20;;
1625;SDS011;806;48.770;9.156;2023-04-24T00:54:27;0.40;;;0.20;;
1625;SDS011;806;48.770;9.156;2023-04-24T00:56:54;0.40;;;0.15;;
1625;SDS011;806;48.770;9.156;2023-04-24T00:59:22;0.50;;;0.20;;
1625;SDS011;806;48.770;9.156;2023-04-24T01:01:49;0.30;;;0.20;;
1625;SDS011;806;48.770;9.156;2023-04-24T01:04:16;0.40;;;0.20;;
1625;SDS011;806;48.770;9.156;2023-04-24T01:06:44;0.40;;;0.20;;
1625;SDS011;806;48.770;9.156;2023-04-24T01:09:12;0.40;;;0.20;;
1625;SDS011;806;48.770;9.156;2023-04-24T01:11:41;0.57;;;0.20;;
1625;SDS011;806;48.770;9.156;2023-04-24T01:14:08;0.60;;;0.20;;
1625;SDS011;806;48.770;9.156;2023-04-24T01:16:36;0.50;;;0.20;;
1625;SDS011;806;48.770;9.156;2023-04-24T01:19:04;0.40;;;0.20;;
1625;SDS011;806;48.770;9.156;2023-04-24T01:21:32;0.40;;;0.20;;
1625;SDS011;806;48.770;9.156;2023-04-24T01:24:05;0.40;;;0.20;;
1625;SDS011;806;48.770;9.156;2023-04-24T01:26:33;0.30;;;0.10;;
1625;SDS011;806;48.770;9.156;2023-04-24T01:29:00;1.00;;;0.20;;
1625;SDS011;806;48.770;9.156;2023-04-24T01:31:27;0.57;;;0.20;;
1625;SDS011;806;48.770;9.156;2023-04-24T01:33:55;0.40;;;0.20;;
1625;SDS011;806;48.770;9.156;2023-04-24T01:36:23;0.40;;;0.20;;
1625;SDS011;806;48.770;9.156;2023-04-24T01:38:52;0.65;;;0.20;;
1625;SDS011;806;48.770;9.156;2023-04-24T01:41:21;0.40;;;0.20;;
1625;SDS011;806;48.770;9.156;2023-04-24T01:43:48;0.40;;;0.20;;
1625;SDS011;806;48.770;9.156;2023-04-24T01:46:16;0.70;;;0.20;;
1625;SDS011;806;48.770;9.156;2023-04-24T01:48:43;0.40;;;0.20;;
1625;SDS011;806;48.770;9.156;2023-04-24T01:51:11;0.60;;;0.20;;
1625;SDS011;806;48.770;9.156;2023-04-24T01:53:41;0.43;;;0.20;;
1625;SDS011;806;48.770;9.156;2023-04-24T01:56:08;0.50;;;0.20;;
1625;SDS011;806;48.770;9.156;2023-04-24T01:58:36;0.30;;;0.20;;
1625;SDS011;806;48.770;9.156;2023-04-24T02:01:05;0.30;;;0.20;;
1625;SDS011;806;48.770;9.156;2023-04-24T02:03:33;0.70;;;0.28;;
1625;SDS011;806;48.770;9.156;2023-04-24T02:06:00;0.40;;;0.20;;
1625;SDS011;806;48.770;9.156;2023-04-24T02:08:27;0.30;;;0.20;;
1625;SDS011;806;48.770;9.156;2023-04-24T02:10:54;0.30;;;0.20;;
1625;SDS011;806;48.770;9.156;2023-04-24T02:13:21;0.40;;;0.20;;
1625;SDS011;806;48.770;9.156;2023-04-24T02:15:49;1.00;;;0.20;;
1625;SDS011;806;48.770;9.156;2023-04-24T02:18:17;0.50;;;0.20;;
1625;SDS011;806;48.770;9.156;2023-04-24T02:20:44;0.55;;;0.20;;
1625;SDS011;806;48.770;9.156;2023-04-24T02:23:11;0.70;;;0.20;;
1625;SDS011;806;48.770;9.156;2023-04-24T02:25:38;0.50;;;0.25;;
1625;SDS011;806;48.770;9.156;2023-04-24T02:28:05;0.40;;;0.20;;
1625;SDS011;806;48.770;9.156;2023-04-24T02:30:32;0.40;;;0.20;;
1625;SDS011;806;48.770;9.156;2023-04-24T02:33:01;0.50;;;0.20;;
1625;SDS011;806;48.770;9.156;2023-04-24T02:35:28;1.38;;;0.20;;
1625;SDS011;806;48.770;9.156;2023-04-24T02:37:55;0.40;;;0.20;;
1625;SDS011;806;48.770;9.156;2023-04-24T02:40:22;0.50;;;0.20;;
1625;SDS011;806;48.770;9.156;2023-04-24T02:42:49;0.40;;;0.20;;
1625;SDS011;806;48.770;9.156;2023-04-24T02:45:16;0.50;;;0.30;;
1625;SDS011;806;48.770;9.156;2023-04-24T02:47:43;0.43;;;0.20;;
1625;SDS011;806;48.770;9.156;2023-04-24T02:50:12;0.50;;;0.20;;
1625;SDS011;806;48.770;9.156;2023-04-24T02:52:39;0.90;;;0.20;;
1625;SDS011;806;48.770;9.156;2023-04-24T02:55:06;0.50;;;0.20;;
1625;SDS011;806;48.770;9.156;2023-04-24T02:57:34;0.40;;;0.20;;
1625;SDS011;806;48.770;9.156;2023-04-24T03:00:01;0.40;;;0.20;;
1625;SDS011;806;48.770;9.156;2023-04-24T03:02:31;0.40;;;0.20;;
1625;SDS011;806;48.770;9.156;2023-04-24T03:04:59;1.08;;;0.20;;
1625;SDS011;806;48.770;9.156;2023-04-24T03:07:28;0.50;;;0.20;;
1625;SDS011;806;48.770;9.156;2023-04-24T03:09:56;0.32;;;0.20;;
1625;SDS011;806;48.770;9.156;2023-04-24T03:12:23;0.50;;;0.20;;
1625;SDS011;806;48.770;9.156;2023-04-24T03:14:50;0.60;;;0.20;;
1625;SDS011;806;48.770;9.156;2023-04-24T03:17:17;0.40;;;0.20;;
1625;SDS011;806;48.770;9.156;2023-04-24T03:19:44;0.80;;;0.22;;
1625;SDS011;806;48.770;9.156;2023-04-24T03:22:11;0.60;;;0.20;;
1625;SDS011;806;48.770;9.156;2023-04-24T03:24:40;0.63;;;0.20;;
1625;SDS011;806;48.770;9.156;2023-04-24T03:27:07;1.50;;;0.20;;
1625;SDS011;806;48.770;9.156;2023-04-24T03:29:34;0.40;;;0.20;;
1625;SDS011;806;48.770;9.156;2023-04-24T03:32:01;0.40;;;0.20;;
1625;SDS011;806;48.770;9.156;2023-04-24T03:34:28;0.40;;;0.25;;
1625;SDS011;806;48.770;9.156;2023-04-24T03:36:55;0.50;;;0.20;;
1625;SDS011;806;48.770;9.156;2023-04-24T03:39:22;0.50;;;0.20;;
1625;SDS011;806;48.770;9.156;2023-04-24T03:41:51;0.35;;;0.20;;
1625;SDS011;806;48.770;9.156;2023-04-24T03:44:18;1.30;;;0.30;;
1625;SDS011;806;48.770;9.156;2023-04-24T03:46:45;1.00;;;0.30;;
1625;SDS011;806;48.770;9.156;2023-04-24T03:49:12;0.40;;;0.20;;
1625;SDS011;806;48.770;9.156;2023-04-24T03:51:39;0.50;;;0.20;;
1625;SDS011;806;48.770;9.156;2023-04-24T03:54:06;0.50;;;0.20;;
1625;SDS011;806;48.770;9.156;2023-04-24T03:56:33;0.80;;;0.30;;
1625;SDS011;806;48.770;9.156;2023-04-24T03:59:02;0.52;;;0.20;;
1625;SDS011;806;48.770;9.156;2023-04-24T04:01:29;0.70;;;0.20;;
1625;SDS011;806;48.770;9.156;2023-04-24T04:03:56;0.60;;;0.20;;
1625;SDS011;806;48.770;9.156;2023-04-24T04:06:23;0.40;;;0.20;;
1625;SDS011;806;48.770;9.156;2023-04-24T04:08:50;0.70;;;0.20;;
1625;SDS011;806;48.770;9.156;2023-04-24T04:11:17;0.70;;;0.20;;
1625;SDS011;806;48.770;9.156;2023-04-24T04:13:44;0.50;;;0.20;;
1625;SDS011;806;48.770;9.156;2023-04-24T04:16:14;1.17;;;0.20;;
1625;SDS011;806;48.770;9.156;2023-04-24T04:18:42;0.70;;;0.20;;
1625;SDS011;806;48.770;9.156;2023-04-24T04:21:09;0.57;;;0.30;;
1625;SDS011;806;48.770;9.156;2023-04-24T04:23:37;1.10;;;0.20;;
1625;SDS011;806;48.770;9.156;2023-04-24T04:26:05;1.30;;;0.30;;
1625;SDS011;806;48.770;9.156;2023-04-24T04:28:33;0.60;;;0.20;;
1625;SDS011;806;48.770;9.156;2023-04-24T04:31:00;0.60;;;0.20;;
1625;SDS011;806;48.770;9.156;2023-04-24T04:33:28;1.30;;;0.20;;
1625;SDS011;806;48.770;9.156;2023-04-24T04:35:56;0.60;;;0.30;;
1625;SDS011;806;48.770;9.156;2023-04-24T04:38:23;0.57;;;0.20;;
1625;SDS011;806;48.770;9.156;2023-04-24T04:40:51;0.40;;;0.20;;
1625;SDS011;806;48.770;9.156;2023-04-24T04:43:18;1.10;;;0.20;;
1625;SDS011;806;48.770;9.156;2023-04-24T04:45:45;0.47;;;0.20;;
1625;SDS011;806;48.770;9.156;2023-04-24T04:48:13;0.75;;;0.20;;
1625;SDS011;806;48.770;9.156;2023-04-24T04:50:44;0.90;;;0.20;;
1625;SDS011;806;48.770;9.156;2023-04-24T04:53:11;0.40;;;0.30;;
1625;SDS011;806;48.770;9.156;2023-04-24T04:55:38;1.10;;;0.30;;
1625;SDS011;806;48.770;9.156;2023-04-24T04:58:05;1.10;;;0.30;;
1625;SDS011;806;48.770;9.156;2023-04-24T05:00:32;0.40;;;0.20;;
1625;SDS011;806;48.770;9.156;2023-04-24T05:03:00;0.50;;;0.30;;
1625;SDS011;806;48.770;9.156;2023-04-24T05:05:28;0.60;;;0.30;;
1625;SDS011;806;48.770;9.156;2023-04-24T05:07:56;0.50;;;0.30;;
1625;SDS011;806;48.770;9.156;2023-04-24T05:10:23;0.45;;;0.30;;
1625;SDS011;806;48.770;9.156;2023-04-24T05:12:50;0.60;;;0.30;;
1625;SDS011;806;48.770;9.156;2023-04-24T05:15:17;0.57;;;0.30;;
1625;SDS011;806;48.770;9.156;2023-04-24T05:17:44;0.50;;;0.30;;
1625;SDS011;806;48.770;9.156;2023-04-24T05:20:11;0.60;;;0.30;;
1625;SDS011;806;48.770;9.156;2023-04-24T05:22:39;0.70;;;0.40;;
1625;SDS011;806;48.770;9.156;2023-04-24T05:25:08;0.50;;;0.30;;
1625;SDS011;806;48.770;9.156;2023-04-24T05:27:37;0.50;;;0.30;;
1625;SDS011;806;48.770;9.156;2023-04-24T05:30:05;0.55;;;0.30;;
1625;SDS011;806;48.770;9.156;2023-04-24T05:32:34;1.15;;;0.30;;
1625;SDS011;806;48.770;9.156;2023-04-24T05:35:01;1.15;;;0.30;;
1625;SDS011;806;48.770;9.156;2023-04-24T05:37:28;0.50;;;0.30;;
1625;SDS011;806;48.770;9.156;2023-04-24T05:39:55;0.90;;;0.30;;
1625;SDS011;806;48.770;9.156;2023-04-24T05:42:24;0.60;;;0.38;;
1625;SDS011;806;48.770;9.156;2023-04-24T05:44:51;0.50;;;0.30;;
1625;SDS011;806;48.770;9.156;2023-04-24T05:47:19;0.50;;;0.30;;
1625;SDS011;806;48.770;9.156;2023-04-24T05:49:46;1.20;;;0.40;;
1625;SDS011;806;48.770;9.156;2023-04-24T05:52:13;0.70;;;0.30;;
1625;SDS011;806;48.770;9.156;2023-04-24T05:54:40;0.80;;;0.32;;
1625;SDS011;806;48.770;9.156;2023-04-24T05:57:07;0.45;;;0.30;;
1625;SDS011;806;48.770;9.156;2023-04-24T05:59:37;0.50;;;0.30;;
1625;SDS011;806;48.770;9.156;2023-04-24T06:02:04;1.10;;;0.30;;
1625;SDS011;806;48.770;9.156;2023-04-24T06:04:32;0.60;;;0.30;;
1625;SDS011;806;48.770;9.156;2023-04-24T06:06:59;0.67;;;0.30;;
1625;SDS011;806;48.770;9.156;2023-04-24T06:09:26;0.50;;;0.40;;
1625;SDS011;806;48.770;9.156;2023-04-24T06:11:53;0.60;;;0.40;;
1625;SDS011;806;48.770;9.156;2023-04-24T06:14:21;1.10;;;0.30;;
1625;SDS011;806;48.770;9.156;2023-04-24T06:16:50;0.50;;;0.30;;
1625;SDS011;806;48.770;9.156;2023-04-24T06:19:17;0.50;;;0.30;;
1625;SDS011;806;48.770;9.156;2023-04-24T06:21:44;1.20;;;0.40;;
1625;SDS011;806;48.770;9.156;2023-04-24T06:24:13;0.60;;;0.40;;
1625;SDS011;806;48.770;9.156;2023-04-24T06:26:41;0.60;;;0.30;;
1625;SDS011;806;48.770;9.156;2023-04-24T06:29:08;0.77;;;0.40;;
1625;SDS011;806;48.770;9.156;2023-04-24T06:31:35;1.40;;;0.45;;
1625;SDS011;806;48.770;9.156;2023-04-24T06:34:04;0.70;;;0.40;;
1625;SDS011;806;48.770;9.156;2023-04-24T06:36:31;0.60;;;0.40;;
1625;SDS011;806;48.770;9.156;2023-04-24T06:38:59;0.80;;;0.43;;
1625;SDS011;806;48.770;9.156;2023-04-24T06:41:27;0.70;;;0.40;;
1625;SDS011;806;48.770;9.156;2023-04-24T06:43:55;0.60;;;0.40;;
1625;SDS011;806;48.770;9.156;2023-04-24T06:46:22;1.00;;;0.40;;
1625;SDS011;806;48.770;9.156;2023-04-24T06:48:51;0.60;;;0.40;;
1625;SDS011;806;48.770;9.156;2023-04-24T06:51:22;0.90;;;0.40;;
1625;SDS011;806;48.770;9.156;2023-04-24T06:53:49;0.68;;;0.40;;
1625;SDS011;806;48.770;9.156;2023-04-24T06:56:17;0.80;;;0.30;;
1625;SDS011;806;48.770;9.156;2023-04-24T06:58:45;0.80;;;0.50;;
1625;SDS011;806;48.770;9.156;2023-04-24T07:01:12;0.60;;;0.40;;
1625;SDS011;806;48.770;9.156;2023-04-24T07:03:39;1.20;;;0.30;;
1625;SDS011;806;48.770;9.156;2023-04-24T07:06:07;0.60;;;0.50;;
1625;SDS011;806;48.770;9.156;2023-04-24T07:08:37;0.80;;;0.30;;
1625;SDS011;806;48.770;9.156;2023-04-24T07:11:04;0.60;;;0.30;;
1625;SDS011;806;48.770;9.156;2023-04-24T07:13:32;0.57;;;0.40;;
1625;SDS011;806;48.770;9.156;2023-04-24T07:16:00;0.80;;;0.40;;
1625;SDS011;806;48.770;9.156;2023-04-24T07:18:27;0.60;;;0.30;;
1625;SDS011;806;48.770;9.156;2023-04-24T07:20:54;0.70;;;0.40;;
1625;SDS011;806;48.770;9.156;2023-04-24T07:23:21;0.75;;;0.40;;
1625;SDS011;806;48.770;9.156;2023-04-24T07:25:50;1.80;;;0.40;;
1625;SDS011;806;48.770;9.156;2023-04-24T07:28:17;0.60;;;0.40;;
1625;SDS011;806;48.770;9.156;2023-04-24T07:30:44;1.10;;;0.30;;
1625;SDS011;806;48.770;9.156;2023-04-24T07:33:11;0.50;;;0.30;;
1625;SDS011;806;48.770;9.156;2023-04-24T07:35:38;0.50;;;0.30;;
1625;SDS011;806;48.770;9.156;2023-04-24T07:38:05;0.60;;;0.30;;
1625;SDS011;806;48.770;9.156;2023-04-24T07:40:32;0.80;;;0.40;;
1625;SDS011;806;48.770;9.156;2023-04-24T07:43:00;0.60;;;0.30;;
1625;SDS011;806;48.770;9.156;2023-04-24T07:45:28;0.57;;;0.30;;
1625;SDS011;806;48.770;9.156;2023-04-24T07:47:56;0.60;;;0.35;;
1625;SDS011;806;48.770;9.156;2023-04-24T07:50:23;0.52;;;0.30;;
1625;SDS011;806;48.770;9.156;2023-04-24T07:52:50;0.60;;;0.40;;
1625;SDS011;806;48.770;9.156;2023-04-24T07:55:17;0.60;;;0.30;;
1625;SDS011;806;48.770;9.156;2023-04-24T07:57:44;1.30;;;0.30;;
1625;SDS011;806;48.770;9.156;2023-04-24T08:00:13;1.20;;;0.30;;
1625;SDS011;806;48.770;9.156;2023-04-24T08:02:41;0.52;;;0.30;;
1625;SDS011;806;48.770;9.156;2023-04-24T08:05:08;0.50;;;0.40;;
1625;SDS011;806;48.770;9.156;2023-04-24T08:07:35;0.90;;;0.40;;
1625;SDS011;806;48.770;9.156;2023-04-24T08:10:02;1.27;;;0.30;;
1625;SDS011;806;48.770;9.156;2023-04-24T08:12:30;0.70;;;0.40;;
1625;SDS011;806;48.770;9.156;2023-04-24T08:14:57;0.80;;;0.30;;
1625;SDS011;806;48.770;9.156;2023-04-24T08:17:25;0.70;;;0.30;;
1625;SDS011;806;48.770;9.156;2023-04-24T08:19:53;0.43;;;0.30;;
1625;SDS011;806;48.770;9.156;2023-04-24T08:22:26;1.60;;;0.40;;
1625;SDS011;806;48.770;9.156;2023-04-24T08:24:53;0.60;;;0.30;;
1625;SDS011;806;48.770;9.156;2023-04-24T08:27:21;0.60;;;0.40;;
1625;SDS011;806;48.770;9.156;2023-04-24T08:29:48;0.70;;;0.40;;
1625;SDS011;806;48.770;9.156;2023-04-24T08:32:15;0.80;;;0.40;;
1625;SDS011;806;48.770;9.156;2023-04-24T08:34:44;0.60;;;0.38;;
1625;SDS011;806;48.770;9.156;2023-04-24T08:37:11;0.50;;;0.30;;
1625;SDS011;806;48.770;9.156;2023-04-24T08:39:39;0.50;;;0.30;;
1625;SDS011;806;48.770;9.156;2023-04-24T08:42:06;0.70;;;0.40;;
1625;SDS011;806;48.770;9.156;2023-04-24T08:44:33;1.20;;;0.30;;
1625;SDS011;806;48.770;9.156;2023-04-24T08:47:01;1.17;;;0.40;;
1625;SDS011;806;48.770;9.156;2023-04-24T08:49:29;0.70;;;0.40;;
1625;SDS011;806;48.770;9.156;2023-04-24T08:51:58;0.50;;;0.30;;
1625;SDS011;806;48.770;9.156;2023-04-24T08:54:26;0.63;;;0.32;;
1625;SDS011;806;48.770;9.156;2023-04-24T08:56:55;0.60;;;0.40;;
1625;SDS011;806;48.770;9.156;2023-04-24T08:59:26;0.80;;;0.30;;
1625;SDS011;806;48.770;9.156;2023-04-24T09:01:53;0.70;;;0.40;;
1625;SDS011;806;48.770;9.156;2023-04-24T09:04:22;0.60;;;0.40;;
1625;SDS011;806;48.770;9.156;2023-04-24T09:06:50;0.90;;;0.40;;
1625;SDS011;806;48.770;9.156;2023-04-24T09:09:19;0.70;;;0.40;;
1625;SDS011;806;48.770;9.156;2023-04-24T09:11:47;0.90;;;0.40;;
1625;SDS011;806;48.770;9.156;2023-04-24T09:14:15;0.60;;;0.40;;
1625;SDS011;806;48.770;9.156;2023-04-24T09:16:43;1.20;;;0.35;;
1625;SDS011;806;48.770;9.156;2023-04-24T09:19:10;1.00;;;0.40;;
1625;SDS011;806;48.770;9.156;2023-04-24T09:21:37;0.70;;;0.40;;
1625;SDS011;806;48.770;9.156;2023-04-24T09:24:06;0.60;;;0.30;;
1625;SDS011;806;48.770;9.156;2023-04-24T09:26:35;1.50;;;0.40;;
1625;SDS011;806;48.770;9.156;2023-04-24T09:29:03;0.60;;;0.30;;
1625;SDS011;806;48.770;9.156;2023-04-24T09:31:30;0.50;;;0.30;;
1625;SDS011;806;48.770;9.156;2023-04-24T09:33:58;0.50;;;0.30;;
1625;SDS011;806;48.770;9.156;2023-04-24T09:36:27;0.52;;;0.30;;
1625;SDS011;806;48.770;9.156;2023-04-24T09:38:57;0.90;;;0.40;;
1625;SDS011;806;48.770;9.156;2023-04-24T09:41:25;1.10;;;0.30;;
1625;SDS011;806;48.770;9.156;2023-04-24T09:43:55;3.07;;;0.70;;
1625;SDS011;806;48.770;9.156;2023-04-24T09:46:28;0.60;;;0.40;;
1625;SDS011;806;48.770;9.156;2023-04-24T09:48:56;0.80;;;0.40;;
1625;SDS011;806;48.770;9.156;2023-04-24T09:51:33;0.70;;;0.40;;
1625;SDS011;806;48.770;9.156;2023-04-24T09:54:03;0.50;;;0.30;;
1625;SDS011;806;48.770;9.156;2023-04-24T09:56:34;0.70;;;0.40;;
1625;SDS011;806;48.770;9.156;2023-04-24T09:59:06;1.00;;;0.40;;
1625;SDS011;806;48.770;9.156;2023-04-24T10:01:33;0.60;;;0.40;;
1625;SDS011;806;48.770;9.156;2023-04-24T10:04:01;0.70;;;0.40;;
1625;SDS011;806;48.770;9.156;2023-04-24T10:06:33;0.60;;;0.30;;
1625;SDS011;806;48.770;9.156;2023-04-24T10:09:01;0.85;;;0.40;;
1625;SDS011;806;48.770;9.156;2023-04-24T10:11:28;0.50;;;0.30;;
1625;SDS011;806;48.770;9.156;2023-04-24T10:13:56;0.70;;;0.40;;
1625;SDS011;806;48.770;9.156;2023-04-24T10:16:26;0.80;;;0.50;;
1625;SDS011;806;48.770;9.156;2023-04-24T10:18:54;0.60;;;0.30;;
1625;SDS011;806;48.770;9.156;2023-04-24T10:21:21;0.80;;;0.40;;
1625;SDS011;806;48.770;9.156;2023-04-24T10:23:49;0.50;;;0.30;;
1625;SDS011;806;48.770;9.156;2023-04-24T10:26:17;0.70;;;0.40;;
1625;SDS011;806;48.770;9.156;2023-04-24T10:28:45;0.90;;;0.30;;
1625;SDS011;806;48.770;9.156;2023-04-24T10:31:13;0.60;;;0.40;;
1625;SDS011;806;48.770;9.156;2023-04-24T10:33:43;0.70;;;0.40;;
1625;SDS011;806;48.770;9.156;2023-04-24T10:36:12;0.70;;;0.38;;
1625;SDS011;806;48.770;9.156;2023-04-24T10:38:41;0.50;;;0.30;;
1625;SDS011;806;48.770;9.156;2023-04-24T10:41:11;0.50;;;0.30;;
1625;SDS011;806;48.770;9.156;2023-04-24T10:43:41;1.58;;;0.50;;
1625;SDS011;806;48.770;9.156;2023-04-24T10:46:09;0.70;;;0.40;;
1625;SDS011;806;48.770;9.156;2023-04-24T10:48:41;0.90;;;0.40;;
1625;SDS011;806;48.770;9.156;2023-04-24T10:51:18;0.55;;;0.30;;
1625;SDS011;806;48.770;9.156;2023-04-24T10:53:49;2.20;;;0.30;;
1625;SDS011;806;48.770;9.156;2023-04-24T10:56:17;0.80;;;0.30;;
1625;SDS011;806;48.770;9.156;2023-04-24T10:58:45;1.70;;;0.30;;
1625;SDS011;806;48.770;9.156;2023-04-24T11:01:23;0.65;;;0.30;;
1625;SDS011;806;48.770;9.156;2023-04-24T11:03:54;0.60;;;0.30;;
1625;SDS011;806;48.770;9.156;2023-04-24T11:06:28;0.70;;;0.30;;
1625;SDS011;806;48.770;9.156;2023-04-24T11:09:04;0.70;;;0.30;;
1625;SDS011;806;48.770;9.156;2023-04-24T11:11:32;0.70;;;0.30;;
1625;SDS011;806;48.770;9.156;2023-04-24T11:14:01;1.00;;;0.50;;
1625;SDS011;806;48.770;9.156;2023-04-24T11:16:31;0.40;;;0.30;;
1625;SDS011;806;48.770;9.156;2023-04-24T11:19:02;1.30;;;0.30;;
1625;SDS011;806;48.770;9.156;2023-04-24T11:21:31;0.50;;;0.30;;
1625;SDS011;806;48.770;9.156;2023-04-24T11:23:59;1.10;;;0.50;;
1625;SDS011;806;48.770;9.156;2023-04-24T11:27:07;0.50;;;0.30;;
1625;SDS011;806;48.770;9.156;2023-04-24T11:29:44;0.50;;;0.30;;
1625;SDS011;806;48.770;9.156;2023-04-24T11:32:16;0.90;;;0.30;;
1625;SDS011;806;48.770;9.156;2023-04-24T11:34:47;0.50;;;0.30;;
1625;SDS011;806;48.770;9.156;2023-04-24T11:37:14;0.50;;;0.30;;
1625;SDS011;806;48.770;9.156;2023-04-24T11:39:42;0.70;;;0.40;;
1625;SDS011;806;48.770;9.156;2023-04-24T11:42:09;0.60;;;0.38;;
1625;SDS011;806;48.770;9.156;2023-04-24T11:44:37;1.27;;;0.30;;
1625;SDS011;806;48.770;9.156;2023-04-24T11:47:04;0.50;;;0.40;;
1625;SDS011;806;48.770;9.156;2023-04-24T11:49:32;0.60;;;0.30;;
1625;SDS011;806;48.770;9.156;2023-04-24T11:52:00;1.35;;;0.80;;
1625;SDS011;806;48.770;9.156;2023-04-24T11:54:28;1.30;;;0.50;;
1625;SDS011;806;48.770;9.156;2023-04-24T11:56:55;0.52;;;0.30;;
1625;SDS011;806;48.770;9.156;2023-04-24T11:59:23;0.60;;;0.30;;
1625;SDS011;806;48.770;9.156;2023-04-24T12:01:50;0.50;;;0.30;;
1625;SDS011;806;48.770;9.156;2023-04-24T12:04:17;0.50;;;0.30;;
1625;SDS011;806;48.770;9.156;2023-04-24T12:07:02;0.88;;;0.30;;
1625;SDS011;806;48.770;9.156;2023-04-24T12:09:39;0.80;;;0.40;;
1625;SDS011;806;48.770;9.156;2023-04-24T12:12:08;0.50;;;0.30;;
1625;SDS011;806;48.770;9.156;2023-04-24T12:14:41;0.50;;;0.40;;
1625;SDS011;806;48.770;9.156;2023-04-24T12:17:09;0.70;;;0.30;;
1625;SDS011;806;48.770;9.156;2023-04-24T12:19:36;0.50;;;0.30;;
1625;SDS011;806;48.770;9.156;2023-04-24T12:22:05;0.60;;;0.40;;
1625;SDS011;806;48.770;9.156;2023-04-24T12:24:33;0.60;;;0.30;;
1625;SDS011;806;48.770;9.156;2023-04-24T12:27:00;0.90;;;0.30;;
1625;SDS011;806;48.770;9.156;2023-04-24T12:29:27;0.50;;;0.30;;
1625;SDS011;806;48.770;9.156;2023-04-24T12:31:54;0.90;;;0.40;;
1625;SDS011;806;48.770;9.156;2023-04-24T12:34:22;0.60;;;0.40;;
1625;SDS011;806;48.770;9.156;2023-04-24T12:36:50;0.50;;;0.30;;
1625;SDS011;806;48.770;9.156;2023-04-24T12:39:19;0.68;;;0.40;;
1625;SDS011;806;48.770;9.156;2023-04-24T12:41:50;0.80;;;0.30;;
1625;SDS011;806;48.770;9.156;2023-04-24T12:44:28;0.60;;;0.35;;
1625;SDS011;806;48.770;9.156;2023-04-24T12:46:56;0.70;;;0.40;;
1625;SDS011;806;48.770;9.156;2023-04-24T12:49:23;0.60;;;0.40;;
1625;SDS011;806;48.770;9.156;2023-04-24T12:51:51;0.70;;;0.40;;
1625;SDS011;806;48.770;9.156;2023-04-24T12:54:19;0.60;;;0.40;;
1625;SDS011;806;48.770;9.156;2023-04-24T12:56:46;1.00;;;0.30;;
1625;SDS011;806;48.770;9.156;2023-04-24T12:59:13;0.65;;;0.30;;
1625;SDS011;806;48.770;9.156;2023-04-24T13:01:40;0.63;;;0.30;;
1625;SDS011;806;48.770;9.156;2023-04-24T13:04:07;0.50;;;0.30;;
1625;SDS011;806;48.770;9.156;2023-04-24T13:06:34;0.50;;;0.30;;
1625;SDS011;806;48.770;9.156;2023-04-24T13:09:02;0.60;;;0.30;;
1625;SDS011;806;48.770;9.156;2023-04-24T13:11:30;0.50;;;0.30;;
1625;SDS011;806;48.770;9.156;2023-04-24T13:13:58;0.90;;;0.50;;
1625;SDS011;806;48.770;9.156;2023-04-24T13:16:25;2.53;;;0.40;;
1625;SDS011;806;48.770;9.156;2023-04-24T13:18:52;0.60;;;0.40;;
1625;SDS011;806;48.770;9.156;2023-04-24T13:21:19;0.50;;;0.40;;
1625;SDS011;806;48.770;9.156;2023-04-24T13:23:46;0.60;;;0.30;;
1625;SDS011;806;48.770;9.156;2023-04-24T13:26:13;0.50;;;0.30;;
1625;SDS011;806;48.770;9.156;2023-04-24T13:28:42;0.70;;;0.40;;
1625;SDS011;806;48.770;9.156;2023-04-24T13:31:09;0.50;;;0.30;;
1625;SDS011;806;48.770;9.156;2023-04-24T13:33:36;0.60;;;0.40;;
1625;SDS011;806;48.770;9.156;2023-04-24T13:36:03;0.50;;;0.40;;
1625;SDS011;806;48.770;9.156;2023-04-24T13:38:30;0.90;;;0.40;;
1625;SDS011;806;48.770;9.156;2023-04-24T13:40:57;0.60;;;0.40;;
1625;SDS011;806;48.770;9.156;2023-04-24T13:43:24;0.70;;;0.40;;
1625;SDS011;806;48.770;9.156;2023-04-24T13:45:53;0.60;;;0.30;;
1625;SDS011;806;48.770;9.156;2023-04-24T13:48:20;0.60;;;0.40;;
1625;SDS011;806;48.770;9.156;2023-04-24T13:50:47;0.60;;;0.40;;
1625;SDS011;806;48.770;9.156;2023-04-24T13:53:14;0.60;;;0.40;;
1625;SDS011;806;48.770;9.156;2023-04-24T13:55:42;0.70;;;0.40;;
1625;SDS011;806;48.770;9.156;2023-04-24T13:58:09;0.82;;;0.40;;
1625;SDS011;806;48.770;9.156;2023-04-24T14:00:36;0.60;;;0.40;;
1625;SDS011;806;48.770;9.156;2023-04-24T14:03:05;0.60;;;0.40;;
1625;SDS011;806;48.770;9.156;2023-04-24T14:05:32;0.60;;;0.40;;
1625;SDS011;806;48.770;9.156;2023-04-24T14:07:59;2.30;;;0.50;;
1625;SDS011;806;48.770;9.156;2023-04-24T14:10:26;0.40;;;0.30;;
1625;SDS011;806;48.770;9.156;2023-04-24T14:12:53;0.60;;;0.40;;
1625;SDS011;806;48.770;9.156;2023-04-24T14:15:20;0.60;;;0.50;;
1625;SDS011;806;48.770;9.156;2023-04-24T14:17:47;0.70;;;0.50;;
1625;SDS011;806;48.770;9.156;2023-04-24T14:20:16;0.93;;;0.40;;
1625;SDS011;806;48.770;9.156;2023-04-24T14:22:43;0.55;;;0.30;;
1625;SDS011;806;48.770;9.156;2023-04-24T14:25:10;0.85;;;0.40;;
1625;SDS011;806;48.770;9.156;2023-04-24T14:27:37;1.23;;;0.40;;
1625;SDS011;806;48.770;9.156;2023-04-24T14:30:05;0.60;;;0.40;;
1625;SDS011;806;48.770;9.156;2023-04-24T14:32:33;0.70;;;0.40;;
1625;SDS011;806;48.770;9.156;2023-04-24T14:35:01;0.50;;;0.30;;
1625;SDS011;806;48.770;9.156;2023-04-24T14:37:29;0.80;;;0.30;;
1625;SDS011;806;48.770;9.156;2023-04-24T14:39:56;0.43;;;0.30;;
1625;SDS011;806;48.770;9.156;2023-04-24T14:42:23;0.50;;;0.30;;
1625;SDS011;806;48.770;9.156;2023-04-24T14:44:51;0.50;;;0.30;;
1625;SDS011;806;48.770;9.156;2023-04-24T14:47:17;0.55;;;0.35;;
1625;SDS011;806;48.770;9.156;2023-04-24T14:49:46;0.50;;;0.32;;
1625;SDS011;806;48.770;9.156;2023-04-24T14:52:13;0.52;;;0.30;;
1625;SDS011;806;48.770;9.156;2023-04-24T14:54:42;0.90;;;0.60;;
1625;SDS011;806;48.770;9.156;2023-04-24T14:57:09;0.60;;;0.40;;
1625;SDS011;806;48.770;9.156;2023-04-24T14:59:36;0.75;;;0.40;;
1625;SDS011;806;48.770;9.156;2023-04-24T15:02:03;0.90;;;0.50;;
1625;SDS011;806;48.770;9.156;2023-04-24T15:04:31;0.90;;;0.45;;
1625;SDS011;806;48.770;9.156;2023-04-24T15:06:58;0.70;;;0.40;;
1625;SDS011;806;48.770;9.156;2023-04-24T15:09:25;1.10;;;0.40;;
1625;SDS011;806;48.770;9.156;2023-04-24T15:11:54;1.10;;;0.40;;
1625;SDS011;806;48.770;9.156;2023-04-24T15:14:21;0.70;;;0.50;;
1625;SDS011;806;48.770;9.156;2023-04-24T15:16:48;0.80;;;0.50;;
1625;SDS011;806;48.770;9.156;2023-04-24T15:19:15;2.60;;;0.50;;
1625;SDS011;806;48.770;9.156;2023-04-24T15:21:42;0.80;;;0.60;;
1625;SDS011;806;48.770;9.156;2023-04-24T15:24:10;0.90;;;0.50;;
1625;SDS011;806;48.770;9.156;2023-04-24T15:26:37;1.27;;;0.50;;
1625;SDS011;806;48.770;9.156;2023-04-24T15:29:05;0.60;;;0.40;;
1625;SDS011;806;48.770;9.156;2023-04-24T15:31:32;0.70;;;0.47;;
1625;SDS011;806;48.770;9.156;2023-04-24T15:33:59;1.52;;;0.50;;